sensor_id;sensor_type;location;lat;lon;timestamp;pressure;altitude;pressure_sealevel;temperature;humidity
68301;BME280;55146;47.468;18.806;2023-02-13T00:02:18;102168.87;;;0.80;81.53
68301;BME280;55146;47.468;18.806;2023-02-13T00:04:44;102164.53;;;0.88;81.31
68301;BME280;55146;47.468;18.806;2023-02-13T00:07:09;102163.88;;;0.94;80.89
68301;BME280;55146;47.468;18.806;2023-02-13T00:09:38;102164.28;;;0.99;80.60
68301;BME280;55146;47.468;18.806;2023-02-13T00:12:05;102166.63;;;1.02;80.28
68301;BME280;55146;47.468;18.806;2023-02-13T00:14:34;102166.91;;;1.16;79.48
68301;BME280;55146;47.468;18.806;2023-02-13T00:17:00;102171.47;;;1.16;79.19
68301;BME280;55146;47.468;18.806;2023-02-13T00:19:25;102173.47;;;1.14;78.97
68301;BME280;55146;47.468;18.806;2023-02-13T00:21:51;102179.50;;;1.00;78.89
68301;BME280;55146;47.468;18.806;2023-02-13T00:24:16;102182.47;;;0.89;79.15
68301;BME280;55146;47.468;18.806;2023-02-13T00:26:42;102189.16;;;0.76;79.05
68301;BME280;55146;47.468;18.806;2023-02-13T00:29:07;102189.28;;;0.67;79.47
68301;BME280;55146;47.468;18.806;2023-02-13T00:31:32;102188.59;;;0.65;79.76
68301;BME280;55146;47.468;18.806;2023-02-13T00:33:58;102193.91;;;0.57;79.54
68301;BME280;55146;47.468;18.806;2023-02-13T00:36:23;102190.00;;;0.51;79.44
68301;BME280;55146;47.468;18.806;2023-02-13T00:38:49;102196.59;;;0.49;79.49
68301;BME280;55146;47.468;18.806;2023-02-13T00:41:15;102196.75;;;0.47;79.88
68301;BME280;55146;47.468;18.806;2023-02-13T00:43:42;102202.63;;;0.43;79.77
68301;BME280;55146;47.468;18.806;2023-02-13T00:46:08;102202.69;;;0.33;79.82
68301;BME280;55146;47.468;18.806;2023-02-13T00:48:34;102190.13;;;0.24;80.09
68301;BME280;55146;47.468;18.806;2023-02-13T00:51:00;102191.12;;;0.23;80.01
68301;BME280;55146;47.468;18.806;2023-02-13T00:53:26;102192.81;;;0.24;79.47
68301;BME280;55146;47.468;18.806;2023-02-13T00:55:51;102193.13;;;0.03;79.84
68301;BME280;55146;47.468;18.806;2023-02-13T00:58:18;102208.50;;;0.03;80.06
68301;BME280;55146;47.468;18.806;2023-02-13T01:00:44;102205.56;;;-0.04;79.96
68301;BME280;55146;47.468;18.806;2023-02-13T01:03:12;102200.75;;;-0.10;79.97
68301;BME280;55146;47.468;18.806;2023-02-13T01:05:37;102201.00;;;-0.04;79.96
68301;BME280;55146;47.468;18.806;2023-02-13T01:08:02;102192.59;;;-0.01;79.58
68301;BME280;55146;47.468;18.806;2023-02-13T01:10:28;102198.91;;;-0.10;79.55
68301;BME280;55146;47.468;18.806;2023-02-13T01:12:53;102200.22;;;-0.14;79.46
68301;BME280;55146;47.468;18.806;2023-02-13T01:15:19;102192.56;;;-0.18;79.67
68301;BME280;55146;47.468;18.806;2023-02-13T01:17:45;102180.50;;;-0.24;79.69
68301;BME280;55146;47.468;18.806;2023-02-13T01:20:11;102180.66;;;-0.25;79.65
68301;BME280;55146;47.468;18.806;2023-02-13T01:22:38;102180.56;;;-0.33;79.48
68301;BME280;55146;47.468;18.806;2023-02-13T01:25:04;102180.56;;;-0.33;79.64
68301;BME280;55146;47.468;18.806;2023-02-13T01:27:31;102178.41;;;-0.30;79.88
68301;BME280;55146;47.468;18.806;2023-02-13T01:29:57;102184.66;;;-0.29;79.99
68301;BME280;55146;47.468;18.806;2023-02-13T01:32:22;102181.53;;;-0.25;80.05
68301;BME280;55146;47.468;18.806;2023-02-13T01:34:47;102176.13;;;-0.25;79.75
68301;BME280;55146;47.468;18.806;2023-02-13T01:37:13;102179.09;;;-0.28;79.51
68301;BME280;55146;47.468;18.806;2023-02-13T01:39:39;102176.56;;;-0.29;79.89
68301;BME280;55146;47.468;18.806;2023-02-13T01:42:08;102183.75;;;-0.38;79.78
68301;BME280;55146;47.468;18.806;2023-02-13T01:47:09;102176.25;;;-0.44;79.84
68301;BME280;55146;47.468;18.806;2023-02-13T01:49:37;102178.22;;;-0.46;79.30
68301;BME280;55146;47.468;18.806;2023-02-13T01:52:04;102163.62;;;-0.53;79.49
68301;BME280;55146;47.468;18.806;2023-02-13T01:54:31;102165.94;;;-0.58;79.37
68301;BME280;55146;47.468;18.806;2023-02-13T01:57:04;102172.31;;;-0.59;79.52
68301;BME280;55146;47.468;18.806;2023-02-13T01:59:43;102170.53;;;-0.68;79.95
68301;BME280;55146;47.468;18.806;2023-02-13T02:02:12;102171.22;;;-0.66;79.82
68301;BME280;55146;47.468;18.806;2023-02-13T02:04:40;102170.38;;;-0.67;79.61
68301;BME280;55146;47.468;18.806;2023-02-13T02:07:11;102174.91;;;-0.67;79.58
68301;BME280;55146;47.468;18.806;2023-02-13T02:09:40;102174.38;;;-0.71;79.05
68301;BME280;55146;47.468;18.806;2023-02-13T02:12:26;102169.25;;;-0.74;79.09
68301;BME280;55146;47.468;18.806;2023-02-13T02:14:54;102166.03;;;-0.77;79.22
68301;BME280;55146;47.468;18.806;2023-02-13T02:17:24;102169.25;;;-0.74;79.24
68301;BME280;55146;47.468;18.806;2023-02-13T02:33:04;102173.81;;;-1.02;80.47
68301;BME280;55146;47.468;18.806;2023-02-13T02:35:42;102164.31;;;-1.06;80.40
68301;BME280;55146;47.468;18.806;2023-02-13T02:47:30;102164.03;;;-1.12;79.98
68301;BME280;55146;47.468;18.806;2023-02-13T02:50:34;102170.03;;;-1.18;80.53
68301;BME280;55146;47.468;18.806;2023-02-13T02:53:38;102165.22;;;-1.25;80.74
68301;BME280;55146;47.468;18.806;2023-02-13T02:56:19;102162.94;;;-1.29;80.60
68301;BME280;55146;47.468;18.806;2023-02-13T02:58:53;102165.91;;;-1.23;80.83
68301;BME280;55146;47.468;18.806;2023-02-13T03:01:40;102158.13;;;-1.35;81.08
68301;BME280;55146;47.468;18.806;2023-02-13T03:04:25;102161.84;;;-1.36;81.10
68301;BME280;55146;47.468;18.806;2023-02-13T03:07:15;102158.97;;;-1.35;81.02
68301;BME280;55146;47.468;18.806;2023-02-13T03:09:46;102160.94;;;-1.27;80.87
68301;BME280;55146;47.468;18.806;2023-02-13T03:12:37;102159.97;;;-1.26;80.72
68301;BME280;55146;47.468;18.806;2023-02-13T03:15:24;102163.38;;;-1.34;80.69
68301;BME280;55146;47.468;18.806;2023-02-13T03:17:51;102163.13;;;-1.40;81.04
68301;BME280;55146;47.468;18.806;2023-02-13T03:29:27;102159.97;;;-1.26;81.34
68301;BME280;55146;47.468;18.806;2023-02-13T03:35:15;102166.66;;;-1.40;80.68
68301;BME280;55146;47.468;18.806;2023-02-13T03:38:17;102170.09;;;-1.47;81.03
68301;BME280;55146;47.468;18.806;2023-02-13T03:40:49;102165.13;;;-1.52;81.11
68301;BME280;55146;47.468;18.806;2023-02-13T03:44:04;102158.75;;;-1.51;81.33
68301;BME280;55146;47.468;18.806;2023-02-13T03:46:35;102162.56;;;-1.53;81.25
68301;BME280;55146;47.468;18.806;2023-02-13T03:49:03;102161.44;;;-1.51;81.07
68301;BME280;55146;47.468;18.806;2023-02-13T03:54:32;102155.37;;;-1.62;81.19
68301;BME280;55146;47.468;18.806;2023-02-13T03:57:19;102160.03;;;-1.65;80.98
68301;BME280;55146;47.468;18.806;2023-02-13T04:00:08;102164.44;;;-1.64;80.92
68301;BME280;55146;47.468;18.806;2023-02-13T04:02:40;102168.44;;;-1.77;81.25
68301;BME280;55146;47.468;18.806;2023-02-13T04:05:15;102168.56;;;-1.79;81.47
68301;BME280;55146;47.468;18.806;2023-02-13T04:07:42;102170.00;;;-1.75;81.17
68301;BME280;55146;47.468;18.806;2023-02-13T04:10:13;102175.25;;;-1.83;81.34
68301;BME280;55146;47.468;18.806;2023-02-13T04:15:32;102174.53;;;-1.94;81.53
68301;BME280;55146;47.468;18.806;2023-02-13T04:20:27;102169.44;;;-2.07;81.71
68301;BME280;55146;47.468;18.806;2023-02-13T04:22:53;102172.00;;;-2.06;81.62
68301;BME280;55146;47.468;18.806;2023-02-13T04:25:19;102170.44;;;-1.98;81.44
68301;BME280;55146;47.468;18.806;2023-02-13T04:27:44;102174.25;;;-2.01;81.70
68301;BME280;55146;47.468;18.806;2023-02-13T04:30:10;102168.72;;;-2.09;81.80
68301;BME280;55146;47.468;18.806;2023-02-13T04:32:36;102160.78;;;-2.01;81.72
68301;BME280;55146;47.468;18.806;2023-02-13T04:35:01;102164.03;;;-1.97;81.31
68301;BME280;55146;47.468;18.806;2023-02-13T04:37:27;102157.09;;;-2.00;81.17
68301;BME280;55146;47.468;18.806;2023-02-13T04:39:52;102158.38;;;-2.04;81.32
68301;BME280;55146;47.468;18.806;2023-02-13T04:42:18;102158.78;;;-2.09;81.79
68301;BME280;55146;47.468;18.806;2023-02-13T04:44:43;102153.97;;;-2.05;81.76
68301;BME280;55146;47.468;18.806;2023-02-13T04:47:08;102159.34;;;-2.15;81.60
68301;BME280;55146;47.468;18.806;2023-02-13T04:49:34;102156.38;;;-2.12;81.46
68301;BME280;55146;47.468;18.806;2023-02-13T04:51:59;102157.25;;;-2.11;81.30
68301;BME280;55146;47.468;18.806;2023-02-13T04:54:24;102158.09;;;-2.11;81.30
68301;BME280;55146;47.468;18.806;2023-02-13T04:56:50;102149.72;;;-2.08;81.27
68301;BME280;55146;47.468;18.806;2023-02-13T04:59:15;102148.59;;;-2.05;81.13
68301;BME280;55146;47.468;18.806;2023-02-13T05:01:41;102140.31;;;-2.04;81.03
68301;BME280;55146;47.468;18.806;2023-02-13T05:04:06;102139.78;;;-2.07;80.93
68301;BME280;55146;47.468;18.806;2023-02-13T05:06:31;102146.03;;;-2.07;81.16
68301;BME280;55146;47.468;18.806;2023-02-13T05:08:57;102153.09;;;-2.15;81.41
68301;BME280;55146;47.468;18.806;2023-02-13T05:11:22;102156.66;;;-2.24;81.45
68301;BME280;55146;47.468;18.806;2023-02-13T05:13:47;102151.41;;;-2.26;81.46
68301;BME280;55146;47.468;18.806;2023-02-13T05:16:13;102143.19;;;-2.24;81.36
68301;BME280;55146;47.468;18.806;2023-02-13T05:18:38;102143.06;;;-2.23;81.73
68301;BME280;55146;47.468;18.806;2023-02-13T05:21:04;102142.19;;;-2.23;81.75
68301;BME280;55146;47.468;18.806;2023-02-13T05:23:48;102149.81;;;-2.28;81.73
68301;BME280;55146;47.468;18.806;2023-02-13T05:26:14;102154.81;;;-2.24;81.72
68301;BME280;55146;47.468;18.806;2023-02-13T05:28:39;102157.09;;;-2.29;81.76
68301;BME280;55146;47.468;18.806;2023-02-13T05:31:23;102150.12;;;-2.31;81.64
68301;BME280;55146;47.468;18.806;2023-02-13T05:33:48;102153.81;;;-2.32;81.45
68301;BME280;55146;47.468;18.806;2023-02-13T05:36:14;102154.09;;;-2.35;81.46
68301;BME280;55146;47.468;18.806;2023-02-13T05:38:39;102166.41;;;-2.33;81.68
68301;BME280;55146;47.468;18.806;2023-02-13T05:41:05;102158.34;;;-2.33;81.76
68301;BME280;55146;47.468;18.806;2023-02-13T05:43:31;102147.12;;;-2.38;82.07
68301;BME280;55146;47.468;18.806;2023-02-13T05:46:07;102151.97;;;-2.32;82.00
68301;BME280;55146;47.468;18.806;2023-02-13T05:48:33;102151.09;;;-2.42;81.48
68301;BME280;55146;47.468;18.806;2023-02-13T05:50:59;102156.34;;;-2.40;81.63
68301;BME280;55146;47.468;18.806;2023-02-13T05:53:25;102155.34;;;-2.39;81.60
68301;BME280;55146;47.468;18.806;2023-02-13T05:55:50;102154.50;;;-2.50;81.57
68301;BME280;55146;47.468;18.806;2023-02-13T05:58:17;102159.19;;;-2.42;81.69
68301;BME280;55146;47.468;18.806;2023-02-13T06:00:42;102155.63;;;-2.42;81.64
68301;BME280;55146;47.468;18.806;2023-02-13T06:03:08;102161.28;;;-2.46;81.74
68301;BME280;55146;47.468;18.806;2023-02-13T06:05:33;102159.19;;;-2.42;81.63
68301;BME280;55146;47.468;18.806;2023-02-13T06:07:58;102164.16;;;-2.37;81.38
68301;BME280;55146;47.468;18.806;2023-02-13T06:10:24;102162.88;;;-2.43;81.49
68301;BME280;55146;47.468;18.806;2023-02-13T06:12:49;102164.97;;;-2.47;81.79
68301;BME280;55146;47.468;18.806;2023-02-13T06:15:15;102168.13;;;-2.41;81.64
68301;BME280;55146;47.468;18.806;2023-02-13T06:17:40;102176.34;;;-2.43;81.91
68301;BME280;55146;47.468;18.806;2023-02-13T06:20:06;102174.94;;;-2.47;82.43
68301;BME280;55146;47.468;18.806;2023-02-13T06:22:31;102182.72;;;-2.54;82.78
68301;BME280;55146;47.468;18.806;2023-02-13T06:24:57;102182.72;;;-2.44;82.92
68301;BME280;55146;47.468;18.806;2023-02-13T06:27:22;102177.88;;;-2.40;82.53
68301;BME280;55146;47.468;18.806;2023-02-13T06:29:47;102184.72;;;-2.36;82.33
68301;BME280;55146;47.468;18.806;2023-02-13T06:32:13;102190.97;;;-2.36;82.17
68301;BME280;55146;47.468;18.806;2023-02-13T06:34:38;102189.25;;;-2.37;82.24
68301;BME280;55146;47.468;18.806;2023-02-13T06:37:03;102190.69;;;-2.33;82.18
68301;BME280;55146;47.468;18.806;2023-02-13T06:39:29;102187.16;;;-2.24;82.40
68301;BME280;55146;47.468;18.806;2023-02-13T06:41:54;102202.19;;;-2.21;82.32
68301;BME280;55146;47.468;18.806;2023-02-13T06:44:19;102193.53;;;-2.15;81.87
68301;BME280;55146;47.468;18.806;2023-02-13T06:46:45;102203.63;;;-2.08;81.56
68301;BME280;55146;47.468;18.806;2023-02-13T06:49:10;102199.37;;;-2.00;81.38
68301;BME280;55146;47.468;18.806;2023-02-13T06:51:35;102199.09;;;-1.88;80.92
68301;BME280;55146;47.468;18.806;2023-02-13T06:54:01;102197.97;;;-1.76;80.68
68301;BME280;55146;47.468;18.806;2023-02-13T06:56:26;102196.41;;;-1.69;80.96
68301;BME280;55146;47.468;18.806;2023-02-13T06:58:52;102195.66;;;-1.51;80.76
68301;BME280;55146;47.468;18.806;2023-02-13T07:01:17;102192.94;;;-1.32;79.63
68301;BME280;55146;47.468;18.806;2023-02-13T07:03:43;102201.09;;;-1.05;78.87
68301;BME280;55146;47.468;18.806;2023-02-13T07:06:08;102205.88;;;-0.89;78.30
68301;BME280;55146;47.468;18.806;2023-02-13T07:08:33;102208.12;;;-0.75;77.72
68301;BME280;55146;47.468;18.806;2023-02-13T07:10:59;102207.19;;;-0.56;76.65
68301;BME280;55146;47.468;18.806;2023-02-13T07:13:24;102199.41;;;-0.42;76.12
68301;BME280;55146;47.468;18.806;2023-02-13T07:15:49;102200.13;;;-0.22;76.78
68301;BME280;55146;47.468;18.806;2023-02-13T07:18:15;102208.34;;;0.04;75.82
68301;BME280;55146;47.468;18.806;2023-02-13T07:20:40;102195.59;;;0.32;74.74
68301;BME280;55146;47.468;18.806;2023-02-13T07:23:06;102197.84;;;0.36;73.98
68301;BME280;55146;47.468;18.806;2023-02-13T07:25:32;102197.22;;;0.68;73.90
68301;BME280;55146;47.468;18.806;2023-02-13T07:28:04;102198.03;;;0.87;73.31
68301;BME280;55146;47.468;18.806;2023-02-13T07:30:32;102198.88;;;1.13;72.60
68301;BME280;55146;47.468;18.806;2023-02-13T07:32:59;102203.91;;;1.34;71.72
68301;BME280;55146;47.468;18.806;2023-02-13T07:35:24;102199.41;;;1.50;70.66
68301;BME280;55146;47.468;18.806;2023-02-13T07:37:52;102197.47;;;1.77;70.65
68301;BME280;55146;47.468;18.806;2023-02-13T07:40:17;102205.69;;;2.09;69.27
68301;BME280;55146;47.468;18.806;2023-02-13T07:42:42;102207.75;;;2.31;68.62
68301;BME280;55146;47.468;18.806;2023-02-13T07:45:08;102206.87;;;2.47;67.79
68301;BME280;55146;47.468;18.806;2023-02-13T07:47:33;102198.91;;;2.54;67.44
68301;BME280;55146;47.468;18.806;2023-02-13T07:49:59;102195.50;;;2.60;67.43
68301;BME280;55146;47.468;18.806;2023-02-13T07:52:24;102187.00;;;2.79;66.77
68301;BME280;55146;47.468;18.806;2023-02-13T07:54:50;102194.12;;;2.96;66.39
68301;BME280;55146;47.468;18.806;2023-02-13T07:57:15;102194.62;;;3.08;66.49
68301;BME280;55146;47.468;18.806;2023-02-13T07:59:41;102187.41;;;3.23;66.25
68301;BME280;55146;47.468;18.806;2023-02-13T08:02:10;102192.75;;;3.47;66.01
68301;BME280;55146;47.468;18.806;2023-02-13T08:04:37;102195.06;;;3.66;65.12
68301;BME280;55146;47.468;18.806;2023-02-13T08:07:02;102196.16;;;3.88;64.37
68301;BME280;55146;47.468;18.806;2023-02-13T08:09:27;102196.37;;;4.01;64.22
68301;BME280;55146;47.468;18.806;2023-02-13T08:12:11;102196.19;;;4.11;63.91
68301;BME280;55146;47.468;18.806;2023-02-13T08:14:37;102190.97;;;4.24;64.21
68301;BME280;55146;47.468;18.806;2023-02-13T08:17:02;102193.88;;;4.23;64.82
68301;BME280;55146;47.468;18.806;2023-02-13T08:19:28;102187.72;;;4.29;64.02
68301;BME280;55146;47.468;18.806;2023-02-13T08:21:53;102192.81;;;4.32;63.61
68301;BME280;55146;47.468;18.806;2023-02-13T08:24:19;102197.69;;;4.36;63.44
68301;BME280;55146;47.468;18.806;2023-02-13T08:26:44;102188.97;;;4.41;63.27
68301;BME280;55146;47.468;18.806;2023-02-13T08:29:10;102188.25;;;4.47;63.05
68301;BME280;55146;47.468;18.806;2023-02-13T08:31:36;102184.97;;;4.52;62.81
68301;BME280;55146;47.468;18.806;2023-02-13T08:34:01;102185.97;;;4.51;63.52
68301;BME280;55146;47.468;18.806;2023-02-13T08:36:27;102192.97;;;4.53;64.58
68301;BME280;55146;47.468;18.806;2023-02-13T08:38:52;102183.25;;;4.51;65.29
68301;BME280;55146;47.468;18.806;2023-02-13T08:41:18;102176.53;;;4.61;65.25
68301;BME280;55146;47.468;18.806;2023-02-13T08:43:45;102179.66;;;4.73;65.02
68301;BME280;55146;47.468;18.806;2023-02-13T08:46:10;102180.00;;;4.93;65.02
68301;BME280;55146;47.468;18.806;2023-02-13T08:48:36;102182.44;;;5.02;65.37
68301;BME280;55146;47.468;18.806;2023-02-13T08:51:09;102181.03;;;5.06;65.08
68301;BME280;55146;47.468;18.806;2023-02-13T08:53:36;102178.41;;;5.13;65.20
68301;BME280;55146;47.468;18.806;2023-02-13T08:56:02;102177.66;;;5.19;65.85
68301;BME280;55146;47.468;18.806;2023-02-13T08:58:27;102182.16;;;5.26;65.67
68301;BME280;55146;47.468;18.806;2023-02-13T09:00:53;102186.97;;;5.39;65.53
68301;BME280;55146;47.468;18.806;2023-02-13T09:03:19;102177.44;;;5.50;65.57
68301;BME280;55146;47.468;18.806;2023-02-13T09:05:44;102179.03;;;5.59;65.13
68301;BME280;55146;47.468;18.806;2023-02-13T09:08:12;102181.09;;;5.72;64.99
68301;BME280;55146;47.468;18.806;2023-02-13T09:10:38;102182.97;;;5.86;63.82
68301;BME280;55146;47.468;18.806;2023-02-13T09:13:04;102179.16;;;6.01;63.56
68301;BME280;55146;47.468;18.806;2023-02-13T09:15:30;102183.34;;;6.19;63.31
68301;BME280;55146;47.468;18.806;2023-02-13T09:17:56;102178.94;;;6.39;63.14
68301;BME280;55146;47.468;18.806;2023-02-13T09:20:22;102185.38;;;6.53;61.99
68301;BME280;55146;47.468;18.806;2023-02-13T09:22:47;102178.09;;;6.60;61.12
68301;BME280;55146;47.468;18.806;2023-02-13T09:25:12;102185.59;;;6.79;60.49
68301;BME280;55146;47.468;18.806;2023-02-13T09:27:38;102182.09;;;6.91;60.65
68301;BME280;55146;47.468;18.806;2023-02-13T09:30:08;102186.44;;;7.07;60.32
68301;BME280;55146;47.468;18.806;2023-02-13T09:32:34;102183.16;;;7.18;58.79
68301;BME280;55146;47.468;18.806;2023-02-13T09:35:00;102190.16;;;7.27;59.51
68301;BME280;55146;47.468;18.806;2023-02-13T09:37:25;102183.50;;;7.43;59.24
68301;BME280;55146;47.468;18.806;2023-02-13T09:39:51;102187.19;;;7.63;60.19
68301;BME280;55146;47.468;18.806;2023-02-13T09:42:20;102180.44;;;7.66;58.74
68301;BME280;55146;47.468;18.806;2023-02-13T09:44:50;102174.44;;;7.84;58.59
68301;BME280;55146;47.468;18.806;2023-02-13T09:47:30;102176.78;;;8.00;58.20
68301;BME280;55146;47.468;18.806;2023-02-13T09:52:33;102177.34;;;8.43;56.87
68301;BME280;55146;47.468;18.806;2023-02-13T09:55:00;102175.47;;;8.57;55.96
68301;BME280;55146;47.468;18.806;2023-02-13T09:57:39;102168.50;;;8.67;55.94
68301;BME280;55146;47.468;18.806;2023-02-13T10:00:21;102167.44;;;8.81;55.62
68301;BME280;55146;47.468;18.806;2023-02-13T10:03:03;102164.25;;;9.04;56.22
68301;BME280;55146;47.468;18.806;2023-02-13T10:08:47;102150.50;;;9.24;55.60
68301;BME280;55146;47.468;18.806;2023-02-13T10:14:15;102146.34;;;9.59;54.13
68301;BME280;55146;47.468;18.806;2023-02-13T10:21:53;102143.03;;;9.89;52.78
68301;BME280;55146;47.468;18.806;2023-02-13T10:24:31;102141.72;;;9.98;53.44
68301;BME280;55146;47.468;18.806;2023-02-13T10:27:01;102145.84;;;10.13;52.99
68301;BME280;55146;47.468;18.806;2023-02-13T10:29:44;102140.81;;;10.17;52.83
68301;BME280;55146;47.468;18.806;2023-02-13T10:32:47;102132.94;;;10.21;52.71
68301;BME280;55146;47.468;18.806;2023-02-13T10:35:26;102129.22;;;10.40;52.48
68301;BME280;55146;47.468;18.806;2023-02-13T10:37:55;102126.25;;;10.41;52.93
68301;BME280;55146;47.468;18.806;2023-02-13T10:40:26;102126.69;;;10.63;52.70
68301;BME280;55146;47.468;18.806;2023-02-13T10:45:39;102121.06;;;10.76;52.53
68301;BME280;55146;47.468;18.806;2023-02-13T10:56:47;102110.19;;;11.43;50.44
68301;BME280;55146;47.468;18.806;2023-02-13T10:59:36;102103.44;;;11.39;50.26
68301;BME280;55146;47.468;18.806;2023-02-13T11:02:28;102100.31;;;11.53;51.57
68301;BME280;55146;47.468;18.806;2023-02-13T11:05:00;102089.88;;;11.55;51.77
68301;BME280;55146;47.468;18.806;2023-02-13T11:07:26;102081.44;;;11.68;51.44
68301;BME280;55146;47.468;18.806;2023-02-13T11:09:58;102079.00;;;11.60;50.28
68301;BME280;55146;47.468;18.806;2023-02-13T11:14:55;102071.50;;;11.97;50.51
68301;BME280;55146;47.468;18.806;2023-02-13T11:17:21;102076.12;;;12.15;49.55
68301;BME280;55146;47.468;18.806;2023-02-13T11:19:50;102067.69;;;12.10;49.24
68301;BME280;55146;47.468;18.806;2023-02-13T11:22:32;102073.81;;;12.12;49.07
68301;BME280;55146;47.468;18.806;2023-02-13T11:25:02;102064.34;;;12.08;49.45
68301;BME280;55146;47.468;18.806;2023-02-13T11:27:36;102064.37;;;12.20;49.56
68301;BME280;55146;47.468;18.806;2023-02-13T11:33:03;102067.78;;;12.45;48.74
68301;BME280;55146;47.468;18.806;2023-02-13T11:35:32;102067.16;;;12.43;48.70
68301;BME280;55146;47.468;18.806;2023-02-13T11:40:37;102050.78;;;12.06;48.74
68301;BME280;55146;47.468;18.806;2023-02-13T11:43:06;102049.31;;;11.92;48.49
68301;BME280;55146;47.468;18.806;2023-02-13T11:45:32;102040.66;;;11.89;48.99
68301;BME280;55146;47.468;18.806;2023-02-13T11:47:58;102037.53;;;11.85;49.42
68301;BME280;55146;47.468;18.806;2023-02-13T11:53:04;102036.63;;;12.03;48.96
68301;BME280;55146;47.468;18.806;2023-02-13T11:55:35;102028.91;;;11.93;48.77
68301;BME280;55146;47.468;18.806;2023-02-13T12:00:40;102034.66;;;11.32;50.04
68301;BME280;55146;47.468;18.806;2023-02-13T12:08:27;102022.87;;;11.25;50.63
68301;BME280;55146;47.468;18.806;2023-02-13T12:10:54;102022.81;;;11.13;51.42
68301;BME280;55146;47.468;18.806;2023-02-13T12:13:25;102027.94;;;10.91;50.93
68301;BME280;55146;47.468;18.806;2023-02-13T12:16:03;102027.03;;;10.79;52.82
68301;BME280;55146;47.468;18.806;2023-02-13T12:18:42;102009.13;;;11.07;52.79
68301;BME280;55146;47.468;18.806;2023-02-13T12:24:17;102019.06;;;10.89;51.86
68301;BME280;55146;47.468;18.806;2023-02-13T12:26:50;102003.16;;;11.10;52.38
68301;BME280;55146;47.468;18.806;2023-02-13T12:29:21;102000.47;;;11.21;51.74
68301;BME280;55146;47.468;18.806;2023-02-13T12:42:48;101986.84;;;11.68;51.39
68301;BME280;55146;47.468;18.806;2023-02-13T13:25:42;101954.47;;;10.74;51.67
68301;BME280;55146;47.468;18.806;2023-02-13T13:28:16;101953.00;;;10.89;52.88
68301;BME280;55146;47.468;18.806;2023-02-13T13:30:44;101955.75;;;10.71;52.17
68301;BME280;55146;47.468;18.806;2023-02-13T13:33:23;101951.00;;;10.78;52.47
68301;BME280;55146;47.468;18.806;2023-02-13T13:36:06;101958.19;;;10.43;52.43
68301;BME280;55146;47.468;18.806;2023-02-13T13:38:45;101960.81;;;10.06;53.06
68301;BME280;55146;47.468;18.806;2023-02-13T13:47:00;101963.06;;;9.66;54.13
68301;BME280;55146;47.468;18.806;2023-02-13T13:49:40;101967.50;;;9.36;55.57
68301;BME280;55146;47.468;18.806;2023-02-13T13:52:31;101962.37;;;9.02;56.81
68301;BME280;55146;47.468;18.806;2023-02-13T13:54:59;101937.47;;;9.03;57.29
68301;BME280;55146;47.468;18.806;2023-02-13T13:57:58;101953.72;;;9.05;57.47
68301;BME280;55146;47.468;18.806;2023-02-13T14:00:27;101949.09;;;8.99;57.28
68301;BME280;55146;47.468;18.806;2023-02-13T14:03:19;101945.34;;;8.93;57.44
68301;BME280;55146;47.468;18.806;2023-02-13T14:06:00;101951.94;;;8.79;58.27
68301;BME280;55146;47.468;18.806;2023-02-13T14:11:05;101947.38;;;9.04;58.28
68301;BME280;55146;47.468;18.806;2023-02-13T14:13:48;101949.72;;;9.07;58.43
68301;BME280;55146;47.468;18.806;2023-02-13T14:16:43;101947.81;;;9.01;58.52
68301;BME280;55146;47.468;18.806;2023-02-13T14:21:50;101953.13;;;8.96;58.81
68301;BME280;55146;47.468;18.806;2023-02-13T14:24:17;101954.59;;;8.99;59.03
68301;BME280;55146;47.468;18.806;2023-02-13T14:26:50;101951.87;;;8.92;59.39
68301;BME280;55146;47.468;18.806;2023-02-13T14:29:27;101948.16;;;8.73;59.75
68301;BME280;55146;47.468;18.806;2023-02-13T14:32:01;101951.38;;;8.64;60.06
68301;BME280;55146;47.468;18.806;2023-02-13T14:34:30;101955.37;;;8.61;60.28
68301;BME280;55146;47.468;18.806;2023-02-13T14:37:14;101958.78;;;8.57;60.48
68301;BME280;55146;47.468;18.806;2023-02-13T14:40:11;101965.09;;;8.57;61.10
68301;BME280;55146;47.468;18.806;2023-02-13T14:42:39;101960.69;;;8.43;61.43
68301;BME280;55146;47.468;18.806;2023-02-13T14:45:18;101960.06;;;8.34;62.07
68301;BME280;55146;47.468;18.806;2023-02-13T14:47:52;101971.44;;;8.25;62.25
68301;BME280;55146;47.468;18.806;2023-02-13T14:50:26;101965.97;;;8.25;62.47
68301;BME280;55146;47.468;18.806;2023-02-13T14:52:53;101966.63;;;8.27;62.84
68301;BME280;55146;47.468;18.806;2023-02-13T14:55:39;101972.53;;;8.30;62.65
68301;BME280;55146;47.468;18.806;2023-02-13T14:58:28;101963.44;;;8.30;62.56
68301;BME280;55146;47.468;18.806;2023-02-13T15:01:22;101957.94;;;8.23;62.60
68301;BME280;55146;47.468;18.806;2023-02-13T15:04:14;101957.75;;;8.05;63.29
68301;BME280;55146;47.468;18.806;2023-02-13T15:06:43;101963.69;;;7.95;63.61
68301;BME280;55146;47.468;18.806;2023-02-13T15:11:57;101965.56;;;8.01;63.45
68301;BME280;55146;47.468;18.806;2023-02-13T15:14:33;101956.06;;;7.97;63.42
68301;BME280;55146;47.468;18.806;2023-02-13T15:17:18;101949.13;;;7.82;63.57
68301;BME280;55146;47.468;18.806;2023-02-13T15:19:50;101954.78;;;7.54;64.46
68301;BME280;55146;47.468;18.806;2023-02-13T15:22:19;101953.31;;;7.38;65.75
68301;BME280;55146;47.468;18.806;2023-02-13T15:24:47;101956.69;;;7.40;65.46
68301;BME280;55146;47.468;18.806;2023-02-13T15:27:39;101952.25;;;7.39;65.50
68301;BME280;55146;47.468;18.806;2023-02-13T15:30:21;101957.50;;;7.41;65.76
68301;BME280;55146;47.468;18.806;2023-02-13T15:32:58;101961.91;;;7.35;66.12
68301;BME280;55146;47.468;18.806;2023-02-13T15:35:25;101958.56;;;7.40;65.84
68301;BME280;55146;47.468;18.806;2023-02-13T15:37:53;101965.72;;;7.34;65.95
68301;BME280;55146;47.468;18.806;2023-02-13T15:40:26;101969.28;;;7.35;66.09